sensor_id;sensor_type;location;lat;lon;timestamp;temperature;humidity
52531;DHT22;38441;52.894;6.040;2023-05-07T00:03:48;17.00;99.90
52531;DHT22;38441;52.894;6.040;2023-05-07T00:06:19;15.20;99.90
52531;DHT22;38441;52.894;6.040;2023-05-07T00:09:05;14.70;99.90
52531;DHT22;38441;52.894;6.040;2023-05-07T00:11:54;17.60;99.90
52531;DHT22;38441;52.894;6.040;2023-05-07T00:27:56;15.80;99.90
52531;DHT22;38441;52.894;6.040;2023-05-07T00:30:48;15.50;99.90
52531;DHT22;38441;52.894;6.040;2023-05-07T00:33:14;15.50;99.90
52531;DHT22;38441;52.894;6.040;2023-05-07T00:35:40;15.50;99.90
52531;DHT22;38441;52.894;6.040;2023-05-07T00:41:36;14.00;99.90
52531;DHT22;38441;52.894;6.040;2023-05-07T00:44:04;16.50;99.90
52531;DHT22;38441;52.894;6.040;2023-05-07T00:46:30;15.70;99.90
52531;DHT22;38441;52.894;6.040;2023-05-07T00:49:09;13.40;99.90
52531;DHT22;38441;52.894;6.040;2023-05-07T00:51:34;13.00;99.90
52531;DHT22;38441;52.894;6.040;2023-05-07T12:30:39;18.90;99.90
52531;DHT22;38441;52.894;6.040;2023-05-07T13:06:50;18.90;99.90
52531;DHT22;38441;52.894;6.040;2023-05-07T13:09:16;15.90;99.90
52531;DHT22;38441;52.894;6.040;2023-05-07T13:11:52;20.50;99.90
52531;DHT22;38441;52.894;6.040;2023-05-07T13:14:21;19.20;99.90
52531;DHT22;38441;52.894;6.040;2023-05-07T13:17:39;21.40;99.90
52531;DHT22;38441;52.894;6.040;2023-05-07T13:20:07;17.20;99.90
52531;DHT22;38441;52.894;6.040;2023-05-07T13:22:33;19.30;99.90
52531;DHT22;38441;52.894;6.040;2023-05-07T13:24:59;20.50;99.90
52531;DHT22;38441;52.894;6.040;2023-05-07T13:27:25;20.60;99.90
52531;DHT22;38441;52.894;6.040;2023-05-07T13:29:51;20.70;99.90
52531;DHT22;38441;52.894;6.040;2023-05-07T13:32:17;22.30;99.90
52531;DHT22;38441;52.894;6.040;2023-05-07T13:34:42;21.40;99.90
52531;DHT22;38441;52.894;6.040;2023-05-07T13:37:11;19.60;99.90
52531;DHT22;38441;52.894;6.040;2023-05-07T13:39:37;20.60;99.90
52531;DHT22;38441;52.894;6.040;2023-05-07T13:42:02;20.20;99.90
52531;DHT22;38441;52.894;6.040;2023-05-07T13:44:30;19.10;99.90
52531;DHT22;38441;52.894;6.040;2023-05-07T13:46:56;20.40;99.90
52531;DHT22;38441;52.894;6.040;2023-05-07T13:49:22;19.20;99.90
52531;DHT22;38441;52.894;6.040;2023-05-07T13:51:47;22.10;99.90
52531;DHT22;38441;52.894;6.040;2023-05-07T13:54:13;20.70;99.90
52531;DHT22;38441;52.894;6.040;2023-05-07T13:56:39;20.00;99.90
52531;DHT22;38441;52.894;6.040;2023-05-07T13:59:04;22.00;99.90
52531;DHT22;38441;52.894;6.040;2023-05-07T14:01:30;20.60;99.90
52531;DHT22;38441;52.894;6.040;2023-05-07T14:03:56;21.80;99.90
52531;DHT22;38441;52.894;6.040;2023-05-07T14:06:25;22.60;99.90
52531;DHT22;38441;52.894;6.040;2023-05-07T14:08:51;21.60;99.90
52531;DHT22;38441;52.894;6.040;2023-05-07T14:11:17;20.50;99.90
52531;DHT22;38441;52.894;6.040;2023-05-07T14:13:46;23.00;99.90
52531;DHT22;38441;52.894;6.040;2023-05-07T14:16:12;20.20;99.90
52531;DHT22;38441;52.894;6.040;2023-05-07T14:18:38;22.70;99.90
52531;DHT22;38441;52.894;6.040;2023-05-07T14:21:06;20.90;99.90
52531;DHT22;38441;52.894;6.040;2023-05-07T14:23:32;21.60;99.90
52531;DHT22;38441;52.894;6.040;2023-05-07T14:25:58;20.60;99.90
52531;DHT22;38441;52.894;6.040;2023-05-07T14:28:24;22.30;99.90
52531;DHT22;38441;52.894;6.040;2023-05-07T14:30:50;22.50;99.90
52531;DHT22;38441;52.894;6.040;2023-05-07T14:33:16;23.00;99.90
52531;DHT22;38441;52.894;6.040;2023-05-07T14:35:42;20.40;99.90
52531;DHT22;38441;52.894;6.040;2023-05-07T14:38:13;20.80;99.90
52531;DHT22;38441;52.894;6.040;2023-05-07T14:40:38;22.10;99.90
52531;DHT22;38441;52.894;6.040;2023-05-07T14:43:04;22.80;99.90
52531;DHT22;38441;52.894;6.040;2023-05-07T14:45:30;20.20;99.90
52531;DHT22;38441;52.894;6.040;2023-05-07T14:48:05;22.10;99.90
52531;DHT22;38441;52.894;6.040;2023-05-07T14:50:31;20.40;99.90
52531;DHT22;38441;52.894;6.040;2023-05-07T14:52:58;20.40;99.90
52531;DHT22;38441;52.894;6.040;2023-05-07T14:55:27;21.90;99.90
52531;DHT22;38441;52.894;6.040;2023-05-07T14:57:55;21.20;99.90
52531;DHT22;38441;52.894;6.040;2023-05-07T15:00:21;21.00;99.90
52531;DHT22;38441;52.894;6.040;2023-05-07T15:02:47;21.50;99.90
52531;DHT22;38441;52.894;6.040;2023-05-07T15:05:12;21.60;99.90
52531;DHT22;38441;52.894;6.040;2023-05-07T15:07:40;21.70;99.90
52531;DHT22;38441;52.894;6.040;2023-05-07T15:10:09;21.70;99.90
52531;DHT22;38441;52.894;6.040;2023-05-07T15:12:34;20.50;99.90
52531;DHT22;38441;52.894;6.040;2023-05-07T15:15:00;21.30;99.90
52531;DHT22;38441;52.894;6.040;2023-05-07T15:17:27;21.80;99.90
52531;DHT22;38441;52.894;6.040;2023-05-07T15:19:58;18.50;99.90
52531;DHT22;38441;52.894;6.040;2023-05-07T15:22:29;21.70;99.90
52531;DHT22;38441;52.894;6.040;2023-05-07T15:24:55;21.70;99.90
52531;DHT22;38441;52.894;6.040;2023-05-07T15:27:22;21.80;99.90
52531;DHT22;38441;52.894;6.040;2023-05-07T15:29:48;21.80;99.90
52531;DHT22;38441;52.894;6.040;2023-05-07T15:32:14;22.20;99.90
52531;DHT22;38441;52.894;6.040;2023-05-07T15:34:39;21.50;99.90
52531;DHT22;38441;52.894;6.040;2023-05-07T15:37:09;21.40;99.90
52531;DHT22;38441;52.894;6.040;2023-05-07T15:39:43;21.40;99.90
52531;DHT22;38441;52.894;6.040;2023-05-07T15:42:12;17.90;99.90
52531;DHT22;38441;52.894;6.040;2023-05-07T15:44:40;21.10;99.90
52531;DHT22;38441;52.894;6.040;2023-05-07T15:47:06;21.70;99.90
52531;DHT22;38441;52.894;6.040;2023-05-07T15:49:38;21.20;99.90
52531;DHT22;38441;52.894;6.040;2023-05-07T15:52:04;20.30;99.90
52531;DHT22;38441;52.894;6.040;2023-05-07T15:54:30;20.00;99.90
52531;DHT22;38441;52.894;6.040;2023-05-07T15:56:56;22.40;99.90
52531;DHT22;38441;52.894;6.040;2023-05-07T15:59:21;22.20;99.90
52531;DHT22;38441;52.894;6.040;2023-05-07T16:01:50;20.30;99.90
52531;DHT22;38441;52.894;6.040;2023-05-07T16:04:19;19.20;99.90
52531;DHT22;38441;52.894;6.040;2023-05-07T16:06:53;20.90;99.90
52531;DHT22;38441;52.894;6.040;2023-05-07T16:09:19;19.40;99.90
52531;DHT22;38441;52.894;6.040;2023-05-07T16:11:44;20.60;99.90
52531;DHT22;38441;52.894;6.040;2023-05-07T16:14:10;19.20;99.90
52531;DHT22;38441;52.894;6.040;2023-05-07T16:16:36;19.00;99.90
52531;DHT22;38441;52.894;6.040;2023-05-07T16:19:03;21.00;99.90
52531;DHT22;38441;52.894;6.040;2023-05-07T16:21:30;20.70;99.90
52531;DHT22;38441;52.894;6.040;2023-05-07T16:23:57;19.30;99.90
52531;DHT22;38441;52.894;6.040;2023-05-07T16:26:23;20.60;99.90
52531;DHT22;38441;52.894;6.040;2023-05-07T16:28:49;20.00;99.90
52531;DHT22;38441;52.894;6.040;2023-05-07T16:31:16;21.20;99.90
52531;DHT22;38441;52.894;6.040;2023-05-07T16:33:43;19.70;99.90
52531;DHT22;38441;52.894;6.040;2023-05-07T16:36:09;19.60;99.90
52531;DHT22;38441;52.894;6.040;2023-05-07T16:38:35;20.20;99.90
52531;DHT22;38441;52.894;6.040;2023-05-07T16:41:03;20.50;99.90
52531;DHT22;38441;52.894;6.040;2023-05-07T16:43:31;19.40;99.90
52531;DHT22;38441;52.894;6.040;2023-05-07T16:45:57;20.40;99.90
52531;DHT22;38441;52.894;6.040;2023-05-07T16:48:25;21.20;99.90
52531;DHT22;38441;52.894;6.040;2023-05-07T16:50:51;20.50;99.90
52531;DHT22;38441;52.894;6.040;2023-05-07T16:53:27;19.30;99.90
52531;DHT22;38441;52.894;6.040;2023-05-07T16:55:58;18.30;99.90
52531;DHT22;38441;52.894;6.040;2023-05-07T16:58:40;18.80;99.90
52531;DHT22;38441;52.894;6.040;2023-05-07T17:01:12;23.10;99.90
52531;DHT22;38441;52.894;6.040;2023-05-07T17:03:42;17.30;99.90
